Juniyah, Lebanon
Current Conditions -  °F | °C
As of 12:00 AM on Friday 19 Dec 2014 (Local Time) from OLBA Reporting Station
Broken Clouds Broken Clouds  
Wind Chill: 63°   Ceiling: 7000
Heat Index: 63°   Visibility: 5mi
Dew Point: 43°   Wind: 6mph
Humidity: 48%   Direction: 100°E
Pressure: 30.09"   Gusts: NA
Location:  33.97°N, 35.63°E
Report Text: OLBA 182100Z 10005KT 8000 BKN070 17/06 Q1019
Loading
Personal Weather Stations






























Interactive Weather Map New forecast layout! Learn more

10-Day Weather Forecast

Advertisements
Track Severe Weather on mobile